createdAt,value
2023-04-11T05:03:10.793Z,5.57
2023-04-11T05:08:12.687Z,5.75
2023-04-11T05:13:14.900Z,5.97
2023-04-11T05:18:17.610Z,6.35
2023-04-11T05:23:20.824Z,6.07
2023-04-11T05:28:24.098Z,6.10
2023-04-11T05:33:25.649Z,5.72
2023-04-11T05:38:28.459Z,6.20
2023-04-11T05:43:30.089Z,5.93
2023-04-11T05:48:36.074Z,5.75
2023-04-11T05:53:37.510Z,5.25
2023-04-11T05:58:39.528Z,5.90
2023-04-11T06:03:41.151Z,5.57
2023-04-11T06:08:42.908Z,5.60
2023-04-11T06:13:44.381Z,5.43
2023-04-11T06:18:46.044Z,5.30
2023-04-11T06:23:47.475Z,6.50
2023-04-11T06:28:51.233Z,6.05
2023-04-11T06:33:52.699Z,5.80
2023-04-11T06:38:54.188Z,5.57
2023-04-11T06:43:55.904Z,6.10
2023-04-11T06:48:57.569Z,6.38
2023-04-11T06:53:59.220Z,7.03
2023-04-11T06:59:01.418Z,7.15
2023-04-11T07:04:07.006Z,6.53
2023-04-11T07:09:12.926Z,4.85
2023-04-11T07:14:14.450Z,4.18
2023-04-11T07:19:15.891Z,3.40
2023-04-11T07:24:18.565Z,3.20
2023-04-11T07:29:20.295Z,3.47
2023-04-11T07:34:21.794Z,4.10
2023-04-11T07:39:23.330Z,4.53
2023-04-11T07:44:24.806Z,4.50
2023-04-11T07:49:26.278Z,4.43
2023-04-11T07:54:28.408Z,4.18
2023-04-11T07:59:29.904Z,4.20
2023-04-11T08:04:33.597Z,3.60
2023-04-11T08:09:35.359Z,3.72
2023-04-11T08:14:37.209Z,3.92
2023-04-11T08:19:38.960Z,3.60
2023-04-11T08:24:40.489Z,3.30
2023-04-11T08:29:41.971Z,3.20
2023-04-11T08:34:43.412Z,3.80
2023-04-11T08:39:44.860Z,3.10
2023-04-11T08:44:52.968Z,2.92
2023-04-11T08:49:56.359Z,2.58
2023-04-11T08:54:57.807Z,2.83
2023-04-11T09:00:02.108Z,2.38
2023-04-11T09:05:03.908Z,2.70
2023-04-11T09:10:19.583Z,2.17
2023-04-11T09:15:26.447Z,2.20
2023-04-11T09:20:31.256Z,2.10
2023-04-11T09:25:43.838Z,1.92
2023-04-11T09:30:53.459Z,2.40
2023-04-11T09:35:56.621Z,2.30
2023-04-11T09:40:59.634Z,2.63
2023-04-11T09:46:12.099Z,2.45
2023-04-11T09:51:27.588Z,2.55
2023-04-11T09:56:36.666Z,2.22
2023-04-11T10:01:38.816Z,2.35
2023-04-11T10:07:02.190Z,2.40
2023-04-11T10:12:04.150Z,2.40
2023-04-11T10:17:18.644Z,2.50
2023-04-11T10:22:59.156Z,2.55
2023-04-11T10:28:01.313Z,2.80
2023-04-11T10:33:09.926Z,2.53
2023-04-11T10:38:48.918Z,2.58
2023-04-11T10:43:51.763Z,2.40
2023-04-11T10:49:04.545Z,2.15
2023-04-11T10:54:06.294Z,1.48
2023-04-11T10:59:10.584Z,1.55
2023-04-11T11:04:13.147Z,1.48
2023-04-11T11:09:21.971Z,1.35
2023-04-11T11:14:32.516Z,1.70
2023-04-11T11:19:35.582Z,1.50
2023-04-11T11:24:37.062Z,1.70
2023-04-11T11:29:38.681Z,2.00
2023-04-11T11:34:40.343Z,2.10
2023-04-11T11:39:43.580Z,1.00
2023-04-11T11:44:45.337Z,1.73
2023-04-11T11:49:56.770Z,1.52
2023-04-11T11:54:58.532Z,1.85
2023-04-11T12:00:01.821Z,1.80
2023-04-11T12:05:06.382Z,2.00
2023-04-11T12:10:13.422Z,2.00
2023-04-11T12:15:19.831Z,1.85
2023-04-11T12:20:26.455Z,2.05
2023-04-11T12:25:28.695Z,2.72
2023-04-11T12:30:30.387Z,2.87
2023-04-11T12:35:32.805Z,2.70
2023-04-11T12:40:34.314Z,2.47
2023-04-11T12:45:36.046Z,1.85
2023-04-11T12:50:37.596Z,1.67
2023-04-11T12:55:39.117Z,1.83
2023-04-11T13:00:40.752Z,2.25
2023-04-11T13:05:42.191Z,1.80
2023-04-11T13:10:43.833Z,2.35
2023-04-11T13:15:46.209Z,2.17
2023-04-11T13:20:47.661Z,1.83
2023-04-11T13:25:49.113Z,2.28
2023-04-11T13:30:50.589Z,2.25
2023-04-11T13:35:52.256Z,1.70
2023-04-11T13:40:55.403Z,2.58
2023-04-11T13:45:57.044Z,2.42
2023-04-11T13:50:59.734Z,2.50
2023-04-11T13:56:03.266Z,3.20
2023-04-11T14:01:05.209Z,3.17
2023-04-11T14:06:08.759Z,2.13
2023-04-11T14:11:10.279Z,2.58
2023-04-11T14:16:11.715Z,3.03
2023-04-11T14:21:13.406Z,2.83
2023-04-11T14:26:14.850Z,2.97
2023-04-11T14:31:16.368Z,3.47
2023-04-11T14:36:18.006Z,2.75
2023-04-11T14:41:19.474Z,2.85
2023-04-11T14:46:20.964Z,2.50
2023-04-11T14:51:25.217Z,1.20
2023-04-11T14:56:26.835Z,0.90
2023-04-11T15:01:28.306Z,1.10
2023-04-11T15:06:29.834Z,1.75
2023-04-11T15:11:31.471Z,2.33
2023-04-11T15:16:33.010Z,1.85
2023-04-11T15:21:34.504Z,2.28
2023-04-11T15:26:36.284Z,2.10
2023-04-11T15:31:38.782Z,2.20
2023-04-11T15:36:41.947Z,2.22
2023-04-11T15:41:43.374Z,2.00
2023-04-11T15:46:46.778Z,2.65
2023-04-11T15:51:50.190Z,2.40
2023-04-11T15:56:51.778Z,2.40
2023-04-11T16:01:53.354Z,2.72
2023-04-11T16:06:56.905Z,4.25
2023-04-11T16:11:58.343Z,1.70
2023-04-11T16:16:59.796Z,2.95
2023-04-11T16:22:01.318Z,3.45
2023-04-11T16:27:02.791Z,3.63
2023-04-11T16:32:04.742Z,4.00
2023-04-11T16:37:06.388Z,3.57
2023-04-11T16:42:07.819Z,3.67
2023-04-11T16:47:09.997Z,4.38
2023-04-11T16:52:11.624Z,3.97
2023-04-11T16:57:13.077Z,4.65
2023-04-11T17:02:14.727Z,3.95
2023-04-11T17:07:16.447Z,3.17
2023-04-11T17:12:17.897Z,4.38
2023-04-11T17:17:20.819Z,4.35
2023-04-11T17:27:23.736Z,4.03
2023-04-11T17:32:25.649Z,4.50
2023-04-11T17:37:27.662Z,4.40
2023-04-11T17:42:29.181Z,3.28
2023-04-11T17:47:30.760Z,3.13
2023-04-11T17:52:32.235Z,2.78
2023-04-11T17:57:34.548Z,2.80
2023-04-11T18:02:42.244Z,4.03
2023-04-11T18:07:45.105Z,3.70
2023-04-11T18:12:51.475Z,3.30
2023-04-11T18:17:53.350Z,4.40
2023-04-11T18:22:55.993Z,4.40
2023-04-11T18:27:57.472Z,3.70
2023-04-11T18:32:58.913Z,3.90
2023-04-11T18:38:00.472Z,2.17
2023-04-11T18:43:01.914Z,2.03
2023-04-11T18:48:03.583Z,2.13
2023-04-11T18:53:07.336Z,2.17
2023-04-11T18:58:12.292Z,2.10
2023-04-11T19:03:16.637Z,2.97
2023-04-11T19:08:18.215Z,3.92
2023-04-11T19:13:19.769Z,3.17
2023-04-11T19:18:21.421Z,3.05
2023-04-11T19:23:23.092Z,3.25
2023-04-11T19:28:24.580Z,3.40
2023-04-11T19:33:26.215Z,2.78
2023-04-11T19:38:27.802Z,2.78
2023-04-11T19:43:29.566Z,2.65
2023-04-11T19:48:31.087Z,2.75
2023-04-11T19:53:36.367Z,2.72
2023-04-11T19:58:37.903Z,2.92
2023-04-11T20:03:40.563Z,2.33
2023-04-11T20:08:42.269Z,2.72
2023-04-11T20:13:43.718Z,2.53
2023-04-11T20:18:45.249Z,2.70
2023-04-11T20:23:48.102Z,3.17
2023-04-11T20:28:50.289Z,2.90
2023-04-11T20:33:51.906Z,2.77
2023-04-11T20:38:55.171Z,3.17
2023-04-11T20:43:57.461Z,2.60
2023-04-11T20:48:59.043Z,3.03
2023-04-11T20:54:00.518Z,3.33
2023-04-11T20:59:02.529Z,3.00
2023-04-11T21:04:04.596Z,2.72
2023-04-11T21:09:06.286Z,3.00
2023-04-11T21:14:07.707Z,2.72
2023-04-11T21:19:11.478Z,2.85
2023-04-11T21:24:12.917Z,2.58
2023-04-11T21:29:14.326Z,2.70
2023-04-11T21:34:15.760Z,2.85
2023-04-11T21:39:17.181Z,2.63
2023-04-11T21:44:18.634Z,3.22
2023-04-11T21:49:20.074Z,3.20
2023-04-11T21:54:21.556Z,2.88
2023-04-11T21:59:22.995Z,3.30
